Disclaimer

Please do not use the information listed here in-flight or in-navigation, as they are not provided to us by the airports but are provided by volunteers, so they might be outdated.

Search


Regions


Airport information page

Radio informations:
Melbourne Center - 123.4 MHz
Common traffic adv. frequency (CTAF) - 126.7 MHz

Airport informations:
Latitude: 23° 25' 04.00" S
Longitude: 119° 48' 10.00" E
Elevation: 1724 feet - 525 meters
Operating hours: N/A
Operating agency: Civil government, landing fees and diplomatic clearance may be required
Timezone: UTC+8
Fuel: Jet A1, without icing nhibitor.

100/130 MIL Spec, low lead, aviation gasoline (BLUE)

Runway information:
05/23 - 6798 x 98 feet< - >2072 x 30 meters

Recent METARs:
YNWN 141500Z AUTO 34009KT 9999 // SCT062 SCT076 BKN093 31/10 Q1015
YNWN 141600Z AUTO 07011KT 9999 // SCT068 27/13 Q1015
YNWN 141600Z AUTO 07011KT 9999 // SCT068 27/13 Q1015

Airport on the map: